createdAt,value
2017-12-11T00:00:26.891Z,100.00
2017-12-11T00:01:32.507Z,100.00
2017-12-11T00:02:38.406Z,100.00
2017-12-11T00:03:45.642Z,100.00
2017-12-11T00:04:51.991Z,100.00
2017-12-11T00:05:57.558Z,100.00
2017-12-11T00:07:03.746Z,100.00
2017-12-11T00:08:09.935Z,100.00
2017-12-11T00:09:16.169Z,100.00
2017-12-11T00:10:22.341Z,100.00
2017-12-11T00:11:27.903Z,100.00
2017-12-11T00:12:33.780Z,100.00
2017-12-11T00:13:39.635Z,100.00
2017-12-11T00:14:45.436Z,100.00
2017-12-11T00:15:53.034Z,100.00
2017-12-11T00:16:58.635Z,100.00
2017-12-11T00:18:04.560Z,100.00
2017-12-11T00:19:10.808Z,100.00
2017-12-11T00:20:20.554Z,100.00
2017-12-11T00:21:26.765Z,100.00
2017-12-11T00:22:43.895Z,100.00
2017-12-11T00:23:49.860Z,100.00
2017-12-11T00:24:56.057Z,100.00
2017-12-11T00:26:02.290Z,100.00
2017-12-11T00:27:08.251Z,100.00
2017-12-11T00:28:13.786Z,100.00
2017-12-11T00:29:20.010Z,100.00
2017-12-11T00:30:26.180Z,100.00
2017-12-11T00:31:32.248Z,100.00
2017-12-11T00:32:38.083Z,100.00
2017-12-11T00:33:44.321Z,100.00
2017-12-11T00:34:50.523Z,100.00
2017-12-11T00:35:56.342Z,100.00
2017-12-11T00:37:02.556Z,100.00
2017-12-11T00:38:08.388Z,100.00
2017-12-11T00:39:14.570Z,100.00
2017-12-11T00:40:20.826Z,100.00
2017-12-11T00:41:27.045Z,100.00
2017-12-11T00:42:32.516Z,100.00
2017-12-11T00:43:37.746Z,100.00
2017-12-11T00:44:43.207Z,100.00
2017-12-11T00:45:49.123Z,100.00
2017-12-11T00:46:57.577Z,100.00
2017-12-11T00:48:05.937Z,100.00
2017-12-11T00:49:11.416Z,100.00
2017-12-11T00:50:18.608Z,100.00
2017-12-11T00:51:24.092Z,100.00
2017-12-11T00:52:29.936Z,100.00
2017-12-11T00:53:36.184Z,100.00
2017-12-11T00:54:42.029Z,100.00
2017-12-11T00:55:48.257Z,100.00
2017-12-11T00:56:54.432Z,100.00
2017-12-11T00:58:00.716Z,100.00
2017-12-11T00:59:08.818Z,100.00
2017-12-11T01:00:15.096Z,100.00
2017-12-11T01:01:21.052Z,100.00
2017-12-11T01:02:27.271Z,100.00
2017-12-11T01:03:33.149Z,100.00
2017-12-11T01:04:38.861Z,100.00
2017-12-11T01:05:44.116Z,100.00
2017-12-11T01:06:50.370Z,100.00
2017-12-11T01:07:55.863Z,100.00
2017-12-11T01:09:01.129Z,100.00
2017-12-11T01:10:06.390Z,100.00
2017-12-11T01:11:12.514Z,100.00
2017-12-11T01:12:19.328Z,100.00
2017-12-11T01:13:25.716Z,100.00
2017-12-11T01:14:32.031Z,100.00
2017-12-11T01:15:38.407Z,100.00
2017-12-11T01:16:44.913Z,100.00
2017-12-11T01:17:51.194Z,100.00
2017-12-11T01:18:58.346Z,100.00
2017-12-11T01:20:04.193Z,100.00
2017-12-11T01:21:10.231Z,99.81
2017-12-11T01:22:16.195Z,100.00
2017-12-11T01:23:22.459Z,99.61
2017-12-11T01:24:28.261Z,99.82
2017-12-11T01:25:34.111Z,99.88
2017-12-11T01:26:41.962Z,100.00
2017-12-11T01:27:48.271Z,100.00
2017-12-11T01:28:54.448Z,100.00
2017-12-11T01:30:00.646Z,99.87
2017-12-11T01:31:05.846Z,99.82
2017-12-11T01:32:12.079Z,99.79
2017-12-11T01:33:17.982Z,99.96
2017-12-11T01:34:24.350Z,100.00
2017-12-11T01:35:33.400Z,99.92
2017-12-11T01:36:39.612Z,99.90
2017-12-11T01:37:45.823Z,99.52
2017-12-11T01:38:52.005Z,99.66
2017-12-11T01:39:57.569Z,99.56
2017-12-11T01:41:03.094Z,99.43
2017-12-11T01:42:08.307Z,99.57
2017-12-11T01:43:13.821Z,99.17
2017-12-11T01:44:19.421Z,98.74
2017-12-11T01:45:24.711Z,98.48
2017-12-11T01:46:29.955Z,98.36
2017-12-11T01:47:37.528Z,98.31
2017-12-11T01:48:43.491Z,98.27
2017-12-11T01:49:49.035Z,98.11
2017-12-11T01:50:54.542Z,97.96
2017-12-11T01:52:00.097Z,97.99
2017-12-11T01:53:06.291Z,98.07
2017-12-11T01:54:12.493Z,97.96
2017-12-11T01:55:18.645Z,97.41
2017-12-11T01:56:24.836Z,97.28
2017-12-11T01:57:31.932Z,97.08
2017-12-11T01:58:38.154Z,97.14
2017-12-11T01:59:43.987Z,96.98
2017-12-11T02:00:50.176Z,96.61
2017-12-11T02:01:55.362Z,96.67
2017-12-11T02:03:01.197Z,96.68
2017-12-11T02:04:07.392Z,96.71
2017-12-11T02:05:13.636Z,96.45
2017-12-11T02:06:19.626Z,96.27
2017-12-11T02:07:25.780Z,95.95
2017-12-11T02:08:32.007Z,95.75
2017-12-11T02:09:38.675Z,95.68
2017-12-11T02:10:44.535Z,95.54
2017-12-11T02:11:50.506Z,94.88
2017-12-11T02:12:56.824Z,94.78
2017-12-11T02:14:03.043Z,94.63
2017-12-11T02:15:08.930Z,94.03
2017-12-11T02:16:14.781Z,94.18
2017-12-11T02:17:20.992Z,93.98
2017-12-11T02:18:26.854Z,93.90
2017-12-11T02:19:32.341Z,93.69
2017-12-11T02:20:38.165Z,93.63
2017-12-11T02:21:43.702Z,93.33
2017-12-11T02:22:49.432Z,93.22
2017-12-11T02:23:54.942Z,93.16
2017-12-11T02:25:00.485Z,93.00
2017-12-11T02:26:06.014Z,92.90
2017-12-11T02:27:11.496Z,92.96
2017-12-11T02:28:17.039Z,93.01
2017-12-11T02:29:22.601Z,92.81
2017-12-11T02:30:27.806Z,92.95
2017-12-11T02:31:33.013Z,92.68
2017-12-11T02:32:38.214Z,92.58
2017-12-11T02:33:43.548Z,92.54
2017-12-11T02:34:48.785Z,92.69
2017-12-11T02:35:54.019Z,92.53
2017-12-11T02:36:59.238Z,92.25
2017-12-11T02:38:05.052Z,92.21
2017-12-11T02:39:10.530Z,92.15
2017-12-11T02:40:16.274Z,92.50
2017-12-11T02:41:21.830Z,92.45
2017-12-11T02:42:27.491Z,92.26
2017-12-11T02:43:32.943Z,92.40
2017-12-11T02:44:38.442Z,92.40
2017-12-11T02:45:44.526Z,92.30
2017-12-11T02:46:49.726Z,92.29
2017-12-11T02:47:59.078Z,92.17
2017-12-11T02:49:04.384Z,91.72
2017-12-11T02:50:09.862Z,91.66
2017-12-11T02:51:15.811Z,91.70
2017-12-11T02:52:21.314Z,91.46
2017-12-11T02:53:26.531Z,91.66
2017-12-11T02:54:32.397Z,91.68
2017-12-11T02:55:38.729Z,91.74
2017-12-11T02:56:47.603Z,91.69
2017-12-11T02:57:53.803Z,91.60
2017-12-11T02:59:00.049Z,91.37
2017-12-11T03:00:06.257Z,91.34
2017-12-11T03:01:12.347Z,91.47
2017-12-11T03:02:18.545Z,91.67
2017-12-11T03:03:24.727Z,91.37
2017-12-11T03:04:30.894Z,91.25
2017-12-11T03:05:36.859Z,91.22
2017-12-11T03:06:42.362Z,91.09
2017-12-11T03:07:48.545Z,91.14
2017-12-11T03:08:54.760Z,91.11
2017-12-11T03:10:00.930Z,90.69
2017-12-11T03:11:06.851Z,90.55
2017-12-11T03:12:13.122Z,90.53
2017-12-11T03:13:18.978Z,90.47
2017-12-11T03:14:25.198Z,90.42
2017-12-11T03:15:30.708Z,90.47
2017-12-11T03:16:36.902Z,90.53
2017-12-11T03:17:43.068Z,90.38
2017-12-11T03:18:49.412Z,90.23
2017-12-11T03:19:55.581Z,90.14
2017-12-11T03:21:01.737Z,90.06
2017-12-11T03:22:07.927Z,90.08
2017-12-11T03:23:14.136Z,89.93
2017-12-11T03:24:20.431Z,89.69
2017-12-11T03:25:30.314Z,89.63
2017-12-11T03:26:36.559Z,89.71
2017-12-11T03:27:42.835Z,89.77
2017-12-11T03:28:49.004Z,89.71
2017-12-11T03:29:55.213Z,89.90
2017-12-11T03:31:01.068Z,89.79
2017-12-11T03:32:07.118Z,90.04
2017-12-11T03:33:12.660Z,89.72
2017-12-11T03:34:18.328Z,89.88
2017-12-11T03:35:24.622Z,89.57
2017-12-11T03:36:30.788Z,89.48
2017-12-11T03:37:36.954Z,89.62
2017-12-11T03:38:43.120Z,89.59
2017-12-11T03:39:53.329Z,89.69
2017-12-11T03:40:59.548Z,89.45
2017-12-11T03:42:05.782Z,89.43
2017-12-11T03:43:11.941Z,89.14
2017-12-11T03:44:18.188Z,89.21
2017-12-11T03:45:24.343Z,88.90
2017-12-11T03:46:30.526Z,89.01
2017-12-11T03:47:36.729Z,88.98
2017-12-11T03:48:42.600Z,88.77
2017-12-11T03:49:48.799Z,88.88
2017-12-11T03:50:54.652Z,88.98
2017-12-11T03:52:07.115Z,88.74
2017-12-11T03:53:12.966Z,88.55
2017-12-11T03:54:19.139Z,88.76
2017-12-11T03:55:25.352Z,88.69
2017-12-11T03:56:31.600Z,88.55
2017-12-11T03:57:38.088Z,88.43
2017-12-11T03:58:44.261Z,88.50
2017-12-11T03:59:50.083Z,88.45
2017-12-11T04:00:55.943Z,88.63
2017-12-11T04:02:02.130Z,88.67
2017-12-11T04:03:08.494Z,88.45
2017-12-11T04:04:14.655Z,88.43
2017-12-11T04:05:20.554Z,88.44
2017-12-11T04:06:34.130Z,88.19
2017-12-11T04:07:40.287Z,88.22
2017-12-11T04:08:46.184Z,88.32
2017-12-11T04:09:52.373Z,88.28
2017-12-11T04:10:58.562Z,88.41
2017-12-11T04:12:04.787Z,88.35
2017-12-11T04:13:10.966Z,88.28
2017-12-11T04:14:17.205Z,87.96
2017-12-11T04:15:23.382Z,88.19
2017-12-11T04:16:29.629Z,88.00
2017-12-11T04:17:40.693Z,87.94
2017-12-11T04:18:46.912Z,87.90
2017-12-11T04:19:53.065Z,87.62
2017-12-11T04:20:59.250Z,87.24
2017-12-11T04:22:08.889Z,87.14
2017-12-11T04:23:15.145Z,87.19
2017-12-11T04:24:21.316Z,87.27
2017-12-11T04:25:27.489Z,87.20
2017-12-11T04:26:33.729Z,87.21
2017-12-11T04:27:39.987Z,87.04
2017-12-11T04:28:46.181Z,87.07
2017-12-11T04:29:52.337Z,87.25
2017-12-11T04:30:58.494Z,87.30
2017-12-11T04:32:04.676Z,87.15
2017-12-11T04:33:10.863Z,87.12
2017-12-11T04:34:17.090Z,86.84
2017-12-11T04:35:23.292Z,86.52
2017-12-11T04:36:29.553Z,86.85
2017-12-11T04:37:35.717Z,86.73
2017-12-11T04:38:41.970Z,86.72
2017-12-11T04:39:48.152Z,87.12
2017-12-11T04:40:54.326Z,87.21
2017-12-11T04:42:00.543Z,87.10
2017-12-11T04:43:06.712Z,86.91
2017-12-11T04:44:12.967Z,86.98
2017-12-11T04:45:19.201Z,87.12
2017-12-11T04:46:25.372Z,86.93
2017-12-11T04:47:31.561Z,86.38
2017-12-11T04:48:37.774Z,86.12
2017-12-11T04:49:43.987Z,86.24
2017-12-11T04:50:49.886Z,86.32
2017-12-11T04:51:56.064Z,86.29
2017-12-11T04:53:02.239Z,86.58
2017-12-11T04:54:08.451Z,86.47
2017-12-11T04:55:14.758Z,86.31
2017-12-11T04:56:20.927Z,86.09
2017-12-11T04:57:27.172Z,85.96
2017-12-11T04:58:33.433Z,85.93
2017-12-11T04:59:39.596Z,85.77
2017-12-11T05:00:45.755Z,85.86
2017-12-11T05:01:51.946Z,86.02
2017-12-11T05:02:58.186Z,86.18
2017-12-11T05:04:04.398Z,85.86
2017-12-11T05:05:10.598Z,85.85
2017-12-11T05:06:16.731Z,85.39
2017-12-11T05:07:22.828Z,85.43
2017-12-11T05:08:28.933Z,85.63
2017-12-11T05:09:35.330Z,85.36
2017-12-11T05:10:40.929Z,85.12
2017-12-11T05:11:46.607Z,84.98
2017-12-11T05:12:52.909Z,84.97
2017-12-11T05:13:59.090Z,84.82
2017-12-11T05:15:07.246Z,84.89
2017-12-11T05:16:13.419Z,84.92
2017-12-11T05:17:19.620Z,85.18
2017-12-11T05:18:25.817Z,85.19
2017-12-11T05:19:32.084Z,85.19
2017-12-11T05:20:38.243Z,85.26
2017-12-11T05:21:44.220Z,85.27
2017-12-11T05:22:50.007Z,85.37
2017-12-11T05:23:56.428Z,85.36
2017-12-11T05:25:02.759Z,85.11
2017-12-11T05:26:08.989Z,84.99
2017-12-11T05:27:15.235Z,85.16
2017-12-11T05:28:20.800Z,85.16
2017-12-11T05:29:26.980Z,85.04
2017-12-11T05:30:33.195Z,85.01
2017-12-11T05:31:39.415Z,85.15
2017-12-11T05:32:45.624Z,85.21
2017-12-11T05:33:51.775Z,85.09
2017-12-11T05:34:57.991Z,85.03
2017-12-11T05:36:03.534Z,85.17
2017-12-11T05:37:09.253Z,85.24
2017-12-11T05:38:15.052Z,85.17
2017-12-11T05:39:21.344Z,85.33
2017-12-11T05:40:27.972Z,85.66
2017-12-11T05:41:35.272Z,85.84
2017-12-11T05:42:43.181Z,85.61
2017-12-11T05:43:49.922Z,85.59
2017-12-11T05:44:56.133Z,85.72
2017-12-11T05:46:01.999Z,85.89
2017-12-11T05:47:08.176Z,86.01
2017-12-11T05:48:14.362Z,86.12
2017-12-11T05:49:21.569Z,86.15
2017-12-11T05:50:27.796Z,86.14
2017-12-11T05:51:33.655Z,86.22
2017-12-11T05:52:39.820Z,86.21
2017-12-11T05:53:46.006Z,86.38
2017-12-11T05:54:52.327Z,86.32
2017-12-11T05:55:58.500Z,86.18
2017-12-11T05:57:04.684Z,86.07
2017-12-11T05:58:10.608Z,86.00
2017-12-11T05:59:16.765Z,85.87
2017-12-11T06:00:22.948Z,86.00
2017-12-11T06:01:28.908Z,86.00
2017-12-11T06:02:35.128Z,85.96
2017-12-11T06:03:41.424Z,86.07
2017-12-11T06:04:48.000Z,85.99
2017-12-11T06:05:55.265Z,86.10
2017-12-11T06:07:02.150Z,86.15
2017-12-11T06:08:08.625Z,86.21
2017-12-11T06:09:14.990Z,86.26
2017-12-11T06:10:21.681Z,86.25
2017-12-11T06:11:27.883Z,86.36
2017-12-11T06:12:34.374Z,86.41
2017-12-11T06:13:40.719Z,86.38
2017-12-11T06:14:46.904Z,86.39
2017-12-11T06:15:53.087Z,86.46
2017-12-11T06:16:59.270Z,86.05
2017-12-11T06:18:05.541Z,86.23
2017-12-11T06:19:11.717Z,86.06
2017-12-11T06:20:17.919Z,86.02
2017-12-11T06:21:24.119Z,86.03
2017-12-11T06:22:30.264Z,86.17
2017-12-11T06:23:36.439Z,86.01
2017-12-11T06:24:42.656Z,85.91
2017-12-11T06:25:48.867Z,85.86
2017-12-11T06:26:55.061Z,85.76
2017-12-11T06:28:01.292Z,85.75
2017-12-11T06:29:12.311Z,85.47
2017-12-11T06:30:18.465Z,85.38
2017-12-11T06:31:24.610Z,85.26
2017-12-11T06:32:30.550Z,85.34
2017-12-11T06:33:36.784Z,85.50
2017-12-11T06:34:43.858Z,85.71
2017-12-11T06:35:50.077Z,85.73
2017-12-11T06:36:56.334Z,85.74
2017-12-11T06:38:02.571Z,86.03
2017-12-11T06:39:08.787Z,86.21
2017-12-11T06:40:20.361Z,86.38
2017-12-11T06:41:26.538Z,86.50
2017-12-11T06:42:32.750Z,86.54
2017-12-11T06:43:39.011Z,86.60
2017-12-11T06:44:45.151Z,86.55
2017-12-11T06:45:51.307Z,86.43
2017-12-11T06:46:57.431Z,86.36
2017-12-11T06:48:03.624Z,86.33
2017-12-11T06:49:09.909Z,86.38
2017-12-11T06:50:16.196Z,86.33
2017-12-11T06:51:22.368Z,86.32
2017-12-11T06:52:32.657Z,86.23
2017-12-11T06:53:38.882Z,86.09
2017-12-11T06:54:45.058Z,86.25
2017-12-11T06:55:51.236Z,86.14
2017-12-11T06:56:57.555Z,86.18
2017-12-11T06:58:03.981Z,86.26
2017-12-11T06:59:10.175Z,86.41
2017-12-11T07:00:16.349Z,86.38
2017-12-11T07:01:22.542Z,86.46
2017-12-11T07:02:28.689Z,86.55
2017-12-11T07:03:34.830Z,86.58
2017-12-11T07:04:41.732Z,86.61
2017-12-11T07:05:47.912Z,86.47
2017-12-11T07:06:54.099Z,86.58
2017-12-11T07:08:00.346Z,86.86
2017-12-11T07:09:06.241Z,87.07
2017-12-11T07:10:12.463Z,87.29
2017-12-11T07:11:18.712Z,87.31
2017-12-11T07:12:24.948Z,87.30
2017-12-11T07:13:31.108Z,87.46
2017-12-11T07:14:37.303Z,87.52
2017-12-11T07:15:43.481Z,87.65
2017-12-11T07:16:49.491Z,87.75
2017-12-11T07:17:55.670Z,87.78
2017-12-11T07:19:01.890Z,87.89
2017-12-11T07:20:08.394Z,87.75
2017-12-11T07:21:14.592Z,87.87
2017-12-11T07:22:20.790Z,87.92
2017-12-11T07:23:26.956Z,87.84
2017-12-11T07:24:33.188Z,87.74
2017-12-11T07:25:39.395Z,87.78
2017-12-11T07:26:45.594Z,87.92
2017-12-11T07:27:51.856Z,88.32
2017-12-11T07:28:58.063Z,88.40
2017-12-11T07:30:04.362Z,88.53
2017-12-11T07:31:10.530Z,88.62
2017-12-11T07:32:16.713Z,88.77
2017-12-11T07:33:22.922Z,88.94
2017-12-11T07:34:29.071Z,89.04
2017-12-11T07:35:35.235Z,88.96
2017-12-11T07:36:41.157Z,88.92
2017-12-11T07:37:47.393Z,89.05
2017-12-11T07:38:53.616Z,90.10
2017-12-11T07:39:59.764Z,90.17
2017-12-11T07:41:05.944Z,89.92
2017-12-11T07:42:11.818Z,89.92
2017-12-11T07:43:18.165Z,90.09
2017-12-11T07:44:24.339Z,90.10
2017-12-11T07:45:30.530Z,89.97
2017-12-11T07:46:36.746Z,89.43
2017-12-11T07:47:42.898Z,89.14
2017-12-11T07:48:49.044Z,89.07
2017-12-11T07:49:55.222Z,89.20
2017-12-11T07:51:01.501Z,89.40
2017-12-11T07:52:07.972Z,89.51
2017-12-11T07:53:14.141Z,89.38
2017-12-11T07:54:20.304Z,89.52
2017-12-11T07:55:26.702Z,89.60
2017-12-11T07:56:32.908Z,89.56
2017-12-11T07:57:39.073Z,89.37
2017-12-11T07:58:45.302Z,89.23
2017-12-11T07:59:51.542Z,89.23
2017-12-11T08:00:57.926Z,88.86
2017-12-11T08:02:05.031Z,89.15
2017-12-11T08:03:10.923Z,89.29
2017-12-11T08:04:17.126Z,89.29
2017-12-11T08:05:23.279Z,89.19
2017-12-11T08:06:31.435Z,89.18
2017-12-11T08:07:37.625Z,89.35
2017-12-11T08:08:43.847Z,89.43
2017-12-11T08:09:50.058Z,89.50
2017-12-11T08:10:56.219Z,89.62
2017-12-11T08:12:02.537Z,89.83
2017-12-11T08:13:08.456Z,89.89
2017-12-11T08:14:14.605Z,89.94
2017-12-11T08:15:20.812Z,89.99
2017-12-11T08:16:26.991Z,89.99
2017-12-11T08:17:33.236Z,89.84
2017-12-11T08:18:39.475Z,89.65
2017-12-11T08:19:46.333Z,89.38
2017-12-11T08:20:52.718Z,89.04
2017-12-11T08:21:59.490Z,88.97
2017-12-11T08:23:10.508Z,88.91
2017-12-11T08:24:16.791Z,88.86
2017-12-11T08:25:23.490Z,88.55
2017-12-11T08:26:30.876Z,88.52
2017-12-11T08:27:37.746Z,88.49
2017-12-11T08:28:43.948Z,88.53
2017-12-11T08:29:50.166Z,88.43
2017-12-11T08:30:56.336Z,88.37
2017-12-11T08:32:02.544Z,88.34
2017-12-11T08:33:08.732Z,88.36
2017-12-11T08:34:15.689Z,88.62
2017-12-11T08:35:22.155Z,89.18
2017-12-11T08:36:28.380Z,89.52
2017-12-11T08:37:34.558Z,89.59
2017-12-11T08:38:40.845Z,89.50
2017-12-11T08:39:47.311Z,89.93
2017-12-11T08:40:53.951Z,89.62
2017-12-11T08:42:00.188Z,89.44
2017-12-11T08:43:06.451Z,89.10
2017-12-11T08:44:12.610Z,88.84
2017-12-11T08:45:18.843Z,88.74
2017-12-11T08:46:25.065Z,88.73
2017-12-11T08:47:31.233Z,88.71
2017-12-11T08:48:37.482Z,88.37
2017-12-11T08:49:43.699Z,88.34
2017-12-11T08:50:49.906Z,88.25
2017-12-11T08:51:56.138Z,87.83
2017-12-11T08:53:02.333Z,87.90
2017-12-11T08:54:14.526Z,87.79
2017-12-11T08:55:20.706Z,87.92
2017-12-11T08:56:27.197Z,87.76
2017-12-11T08:57:33.447Z,87.09
2017-12-11T08:58:42.306Z,87.08
2017-12-11T08:59:48.545Z,86.59
2017-12-11T09:00:54.420Z,86.28
2017-12-11T09:02:00.347Z,86.36
2017-12-11T09:03:06.568Z,86.52
2017-12-11T09:04:12.728Z,86.52
2017-12-11T09:05:19.084Z,86.58
2017-12-11T09:06:25.264Z,87.80
2017-12-11T09:07:31.480Z,86.12
2017-12-11T09:08:42.715Z,85.32
2017-12-11T09:09:48.930Z,84.85
2017-12-11T09:10:59.014Z,83.29
2017-12-11T09:12:04.537Z,84.57
2017-12-11T09:13:10.798Z,85.18
2017-12-11T09:14:17.058Z,84.93
2017-12-11T09:15:23.289Z,84.90
2017-12-11T09:16:29.476Z,84.62
2017-12-11T09:17:35.670Z,84.60
2017-12-11T09:18:41.822Z,84.28
2017-12-11T09:19:48.000Z,84.57
2017-12-11T09:20:54.247Z,84.73
2017-12-11T09:22:00.503Z,84.76
2017-12-11T09:23:06.675Z,85.11
2017-12-11T09:24:12.824Z,85.38
2017-12-11T09:25:19.077Z,85.37
2017-12-11T09:26:25.253Z,85.62
2017-12-11T09:27:31.444Z,85.62
2017-12-11T09:28:37.639Z,85.51
2017-12-11T09:29:43.847Z,85.49
2017-12-11T09:30:49.781Z,85.94
2017-12-11T09:31:58.873Z,86.28
2017-12-11T09:33:04.701Z,86.84
2017-12-11T09:34:10.955Z,86.69
2017-12-11T09:35:17.206Z,85.47
2017-12-11T09:36:23.459Z,85.58
2017-12-11T09:37:29.666Z,85.22
2017-12-11T09:38:35.901Z,85.23
2017-12-11T09:39:42.134Z,84.77
2017-12-11T09:40:48.356Z,85.07
2017-12-11T09:41:54.652Z,85.11
2017-12-11T09:43:00.889Z,84.93
2017-12-11T09:44:07.170Z,85.70
2017-12-11T09:45:13.024Z,85.92
2017-12-11T09:46:19.292Z,85.63
2017-12-11T09:47:25.534Z,85.92
2017-12-11T09:48:31.788Z,86.08
2017-12-11T09:49:38.559Z,86.05
2017-12-11T09:50:46.503Z,85.70
2017-12-11T09:51:54.894Z,85.67
2017-12-11T09:53:01.844Z,85.49
2017-12-11T09:54:08.408Z,84.54
2017-12-11T09:55:15.256Z,85.71
2017-12-11T09:56:22.312Z,86.26
2017-12-11T09:57:28.704Z,85.73
2017-12-11T09:58:36.067Z,85.07
2017-12-11T09:59:42.458Z,85.56
2017-12-11T10:00:49.292Z,85.64
2017-12-11T10:01:55.700Z,85.30
2017-12-11T10:03:02.596Z,84.90
2017-12-11T10:04:09.007Z,84.82
2017-12-11T10:05:17.616Z,84.90
2017-12-11T10:06:25.277Z,85.19
2017-12-11T10:07:32.643Z,85.17
2017-12-11T10:08:39.439Z,85.57
2017-12-11T10:09:46.064Z,85.96
2017-12-11T10:10:52.372Z,85.44
2017-12-11T10:11:58.606Z,85.04
2017-12-11T10:13:04.868Z,85.58
2017-12-11T10:14:11.436Z,85.64
2017-12-11T10:15:18.286Z,85.39
2017-12-11T10:16:25.900Z,85.65
2017-12-11T10:17:38.288Z,85.92
2017-12-11T10:18:45.385Z,86.44
2017-12-11T10:19:52.289Z,86.60
2017-12-11T10:20:58.888Z,86.49
2017-12-11T10:22:06.111Z,86.24
2017-12-11T10:23:12.442Z,86.44
2017-12-11T10:24:19.763Z,86.66
2017-12-11T10:25:27.858Z,86.86
2017-12-11T10:26:34.668Z,87.13
2017-12-11T10:27:42.028Z,87.44
2017-12-11T10:28:48.979Z,87.41
2017-12-11T10:29:55.560Z,86.85
2017-12-11T10:31:02.310Z,87.14
2017-12-11T10:32:11.851Z,87.23
2017-12-11T10:33:18.232Z,87.45
2017-12-11T10:34:25.162Z,87.27
2017-12-11T10:35:31.926Z,87.16
2017-12-11T10:36:38.779Z,87.37
2017-12-11T10:37:45.549Z,87.31
2017-12-11T10:38:52.087Z,87.62
2017-12-11T10:39:58.871Z,87.74
2017-12-11T10:41:07.278Z,88.17
2017-12-11T10:42:14.014Z,88.32
2017-12-11T10:43:20.928Z,89.12
2017-12-11T10:44:27.467Z,89.18
2017-12-11T10:45:34.620Z,89.07
2017-12-11T10:46:41.765Z,89.83
2017-12-11T10:47:48.687Z,90.04
2017-12-11T10:48:55.579Z,90.21
2017-12-11T10:50:04.922Z,90.35
2017-12-11T10:51:11.509Z,90.39
2017-12-11T10:52:18.731Z,90.46
2017-12-11T10:53:25.637Z,89.99
2017-12-11T10:54:32.565Z,89.48
2017-12-11T10:55:40.512Z,89.85
2017-12-11T10:56:48.998Z,90.14
2017-12-11T10:57:56.222Z,89.94
2017-12-11T10:59:03.884Z,90.47
2017-12-11T11:00:10.943Z,90.69
2017-12-11T11:01:16.904Z,90.19
2017-12-11T11:02:23.145Z,90.58
2017-12-11T11:03:29.393Z,90.26
2017-12-11T11:04:36.234Z,90.65
2017-12-11T11:05:43.039Z,90.34
2017-12-11T11:06:49.934Z,90.60
2017-12-11T11:07:57.605Z,91.17
2017-12-11T11:09:05.239Z,92.42
2017-12-11T11:10:13.123Z,92.28
2017-12-11T11:11:19.741Z,92.04
2017-12-11T11:12:26.015Z,92.01
2017-12-11T11:13:32.101Z,92.26
2017-12-11T11:14:38.434Z,93.10
2017-12-11T11:15:44.872Z,92.68
2017-12-11T11:16:51.060Z,92.82
2017-12-11T11:17:57.289Z,94.14
2017-12-11T11:19:03.556Z,94.69
2017-12-11T11:20:09.836Z,95.01
2017-12-11T11:21:16.098Z,95.07
2017-12-11T11:22:22.406Z,95.09
2017-12-11T11:23:28.662Z,94.62
2017-12-11T11:24:34.945Z,94.11
2017-12-11T11:25:42.162Z,94.21
2017-12-11T11:26:49.658Z,94.86
2017-12-11T11:27:57.153Z,95.02
2017-12-11T11:29:04.863Z,95.23
2017-12-11T11:30:12.117Z,95.92
2017-12-11T11:31:21.064Z,95.09
2017-12-11T11:32:28.735Z,95.50
2017-12-11T11:33:35.658Z,96.15
2017-12-11T11:34:43.054Z,95.87
2017-12-11T11:35:50.513Z,95.81
2017-12-11T11:36:58.443Z,95.55
2017-12-11T11:38:05.795Z,95.53
2017-12-11T11:39:14.246Z,94.93
2017-12-11T11:40:21.602Z,94.92
2017-12-11T11:41:28.992Z,94.43
2017-12-11T11:42:35.952Z,94.18
2017-12-11T11:43:43.304Z,94.00
2017-12-11T11:44:51.562Z,94.40
2017-12-11T11:46:02.086Z,93.92
2017-12-11T11:47:10.286Z,94.16
2017-12-11T11:48:17.391Z,93.93
2017-12-11T11:49:24.990Z,93.64
2017-12-11T11:50:33.275Z,93.55
2017-12-11T11:51:40.733Z,93.57
2017-12-11T11:52:48.331Z,93.68
2017-12-11T11:53:56.222Z,93.63
2017-12-11T11:55:03.146Z,94.19
2017-12-11T11:56:09.564Z,94.67
2017-12-11T11:57:16.674Z,94.70
2017-12-11T11:58:23.923Z,94.66
2017-12-11T11:59:31.361Z,95.05
2017-12-11T12:00:37.724Z,95.75
2017-12-11T12:01:43.416Z,96.30
2017-12-11T12:02:49.426Z,96.21
2017-12-11T12:03:56.192Z,96.28
2017-12-11T12:05:03.040Z,96.18
2017-12-11T12:06:09.239Z,96.23
2017-12-11T12:07:15.151Z,96.18
2017-12-11T12:08:21.516Z,95.99
2017-12-11T12:09:27.421Z,96.13
2017-12-11T12:10:33.672Z,97.30
2017-12-11T12:11:39.907Z,96.97
2017-12-11T12:12:46.149Z,96.87
2017-12-11T12:13:52.365Z,96.65
2017-12-11T12:14:58.776Z,96.75
2017-12-11T12:16:04.609Z,96.60
2017-12-11T12:17:10.468Z,96.35
2017-12-11T12:18:16.660Z,96.18
2017-12-11T12:19:22.894Z,96.16
2017-12-11T12:20:28.821Z,96.04
2017-12-11T12:21:35.075Z,96.10
2017-12-11T12:22:41.278Z,96.02
2017-12-11T12:23:47.194Z,96.93
2017-12-11T12:24:53.412Z,97.09
2017-12-11T12:25:59.389Z,97.04
2017-12-11T12:27:04.901Z,96.82
2017-12-11T12:28:11.198Z,96.89
2017-12-11T12:29:17.345Z,96.80
2017-12-11T12:30:23.614Z,96.64
2017-12-11T12:31:29.503Z,96.64
2017-12-11T12:32:35.747Z,96.51
2017-12-11T12:33:41.993Z,96.79
2017-12-11T12:34:48.254Z,96.57
2017-12-11T12:35:54.448Z,96.67
2017-12-11T12:37:00.627Z,96.93
2017-12-11T12:38:06.879Z,96.89
2017-12-11T12:39:13.141Z,96.52
2017-12-11T12:40:19.369Z,96.99
2017-12-11T12:41:25.301Z,97.17
2017-12-11T12:42:31.201Z,97.42
2017-12-11T12:43:37.401Z,97.30
2017-12-11T12:44:43.646Z,97.08
2017-12-11T12:45:54.842Z,97.69
2017-12-11T12:47:01.044Z,98.31
2017-12-11T12:48:13.513Z,98.58
2017-12-11T12:49:19.436Z,98.73
2017-12-11T12:50:25.685Z,98.64
2017-12-11T12:51:31.884Z,98.75
2017-12-11T12:52:37.838Z,98.52
2017-12-11T12:53:44.095Z,99.23
2017-12-11T12:54:50.351Z,99.17
2017-12-11T12:55:56.538Z,99.34
2017-12-11T12:57:02.746Z,100.00
2017-12-11T12:58:08.973Z,100.00
2017-12-11T12:59:15.269Z,100.00
2017-12-11T13:00:21.538Z,100.00
2017-12-11T13:01:27.775Z,100.00
2017-12-11T13:02:39.900Z,100.00
2017-12-11T13:03:46.132Z,100.00
2017-12-11T13:04:52.425Z,100.00
2017-12-11T13:05:58.618Z,100.00
2017-12-11T13:07:04.833Z,100.00
2017-12-11T13:08:11.063Z,100.00
2017-12-11T13:09:17.335Z,100.00
2017-12-11T13:10:23.608Z,100.00
2017-12-11T13:11:29.837Z,100.00
2017-12-11T13:12:36.043Z,100.00
2017-12-11T13:13:42.287Z,100.00
2017-12-11T13:14:48.555Z,100.00
2017-12-11T13:15:54.814Z,100.00
2017-12-11T13:17:01.042Z,100.00
2017-12-11T13:18:07.272Z,100.00
2017-12-11T13:19:19.680Z,100.00
2017-12-11T13:20:25.965Z,100.00
2017-12-11T13:21:32.253Z,100.00
2017-12-11T13:22:38.489Z,100.00
2017-12-11T13:23:44.717Z,100.00
2017-12-11T13:24:50.985Z,100.00
2017-12-11T13:25:57.206Z,100.00
2017-12-11T13:27:03.453Z,100.00
2017-12-11T13:28:09.712Z,100.00
2017-12-11T13:29:15.972Z,100.00
2017-12-11T13:30:22.235Z,100.00
2017-12-11T13:31:28.468Z,100.00
2017-12-11T13:32:34.726Z,100.00
2017-12-11T13:33:40.616Z,100.00
2017-12-11T13:34:46.815Z,100.00
2017-12-11T13:35:53.102Z,100.00
2017-12-11T13:36:59.340Z,100.00
2017-12-11T13:38:09.667Z,100.00
2017-12-11T13:39:15.922Z,100.00
2017-12-11T13:40:22.205Z,100.00
2017-12-11T13:41:28.749Z,100.00
2017-12-11T13:42:34.991Z,100.00
2017-12-11T13:43:41.193Z,100.00
2017-12-11T13:44:47.457Z,100.00
2017-12-11T13:45:53.713Z,100.00
2017-12-11T13:46:59.994Z,100.00
2017-12-11T13:48:06.267Z,100.00
2017-12-11T13:49:12.205Z,100.00
2017-12-11T13:50:18.461Z,100.00
2017-12-11T13:51:24.761Z,100.00
2017-12-11T13:52:31.027Z,100.00
2017-12-11T13:53:37.290Z,100.00
2017-12-11T13:54:43.588Z,100.00
2017-12-11T13:55:49.835Z,100.00
2017-12-11T13:56:56.148Z,100.00
2017-12-11T13:58:02.345Z,100.00
2017-12-11T13:59:09.525Z,100.00
2017-12-11T14:00:15.846Z,100.00
2017-12-11T14:01:22.104Z,100.00
2017-12-11T14:02:28.335Z,100.00
2017-12-11T14:03:34.601Z,100.00
2017-12-11T14:04:40.861Z,100.00
2017-12-11T14:05:47.051Z,100.00
2017-12-11T14:06:53.279Z,100.00
2017-12-11T14:07:59.546Z,100.00
2017-12-11T14:09:05.074Z,100.00
2017-12-11T14:10:11.303Z,100.00